createdAt,value
2023-02-24T00:00:30.196Z,6.96
2023-02-24T00:01:30.121Z,6.96
2023-02-24T00:02:30.219Z,6.96
2023-02-24T00:03:30.174Z,6.97
2023-02-24T00:04:30.117Z,6.98
2023-02-24T00:05:30.078Z,7.00
2023-02-24T00:06:30.055Z,7.01
2023-02-24T00:07:30.063Z,7.03
2023-02-24T00:08:30.046Z,7.04
2023-02-24T00:09:30.092Z,7.06
2023-02-24T00:10:30.049Z,7.07
2023-02-24T00:11:29.999Z,7.08
2023-02-24T00:12:29.991Z,7.09
2023-02-24T00:13:29.981Z,7.10
2023-02-24T00:14:29.974Z,7.11
2023-02-24T00:15:29.958Z,7.11
2023-02-24T00:16:30.047Z,7.11
2023-02-24T00:17:30.038Z,7.11
2023-02-24T00:18:29.978Z,7.10
2023-02-24T00:19:29.884Z,7.10
2023-02-24T00:20:29.883Z,7.09
2023-02-24T00:21:29.871Z,7.06
2023-02-24T00:22:29.870Z,7.02
2023-02-24T00:23:29.870Z,6.96
2023-02-24T00:24:29.840Z,6.90
2023-02-24T00:25:29.832Z,6.83
2023-02-24T00:26:29.816Z,6.77
2023-02-24T00:27:29.799Z,6.72
2023-02-24T00:28:29.773Z,6.69
2023-02-24T00:29:29.778Z,6.66
2023-02-24T00:30:29.767Z,6.64
2023-02-24T00:31:29.850Z,6.63
2023-02-24T00:32:29.917Z,6.61
2023-02-24T00:33:29.712Z,6.57
2023-02-24T00:34:29.744Z,6.52
2023-02-24T00:35:29.695Z,6.46
2023-02-24T00:36:29.708Z,6.42
2023-02-24T00:37:29.689Z,6.38
2023-02-24T00:38:29.654Z,6.36
2023-02-24T00:39:29.636Z,6.36
2023-02-24T00:40:29.662Z,6.35
2023-02-24T00:41:29.638Z,6.34
2023-02-24T00:42:29.628Z,6.32
2023-02-24T00:43:29.601Z,6.27
2023-02-24T00:44:29.574Z,6.21
2023-02-24T00:45:29.562Z,6.14
2023-02-24T00:46:29.651Z,6.08
2023-02-24T00:47:29.550Z,6.03
2023-02-24T00:48:29.528Z,5.98
2023-02-24T00:49:29.538Z,5.94
2023-02-24T00:50:29.517Z,5.90
2023-02-24T00:51:29.492Z,5.86
2023-02-24T00:52:29.475Z,5.84
2023-02-24T00:53:29.461Z,5.82
2023-02-24T00:54:29.456Z,5.82
2023-02-24T00:55:29.434Z,5.81
2023-02-24T00:56:29.439Z,5.81
2023-02-24T00:57:29.416Z,5.82
2023-02-24T00:58:29.392Z,5.82
2023-02-24T00:59:29.399Z,5.82
2023-02-24T01:00:29.398Z,5.83
2023-02-24T01:01:29.392Z,5.83
2023-02-24T01:02:29.341Z,5.84
2023-02-24T01:03:29.339Z,5.84
2023-02-24T01:04:29.339Z,5.84
2023-02-24T01:05:29.306Z,5.84
2023-02-24T01:06:29.316Z,5.84
2023-02-24T01:07:29.285Z,5.84
2023-02-24T01:08:29.278Z,5.84
2023-02-24T01:09:29.254Z,5.83
2023-02-24T01:10:29.237Z,5.83
2023-02-24T01:11:29.223Z,5.81
2023-02-24T01:12:29.219Z,5.78
2023-02-24T01:13:29.204Z,5.75
2023-02-24T01:14:29.208Z,5.70
2023-02-24T01:15:29.188Z,5.63
2023-02-24T01:16:29.194Z,5.57
2023-02-24T01:17:29.154Z,5.52
2023-02-24T01:18:29.138Z,5.48
2023-02-24T01:19:29.129Z,5.44
2023-02-24T01:20:29.117Z,5.42
2023-02-24T01:21:29.093Z,5.41
2023-02-24T01:22:29.093Z,5.42
2023-02-24T01:23:29.076Z,5.45
2023-02-24T01:24:29.099Z,5.50
2023-02-24T01:25:29.042Z,5.54
2023-02-24T01:26:29.056Z,5.59
2023-02-24T01:27:29.022Z,5.62
2023-02-24T01:28:29.040Z,5.67
2023-02-24T01:29:28.995Z,5.71
2023-02-24T01:30:29.033Z,5.75
2023-02-24T01:31:29.137Z,5.80
2023-02-24T01:32:29.243Z,5.84
2023-02-24T01:33:28.943Z,5.88
2023-02-24T01:34:28.952Z,5.93
2023-02-24T01:35:28.913Z,5.97
2023-02-24T01:36:28.921Z,6.01
2023-02-24T01:37:28.891Z,6.04
2023-02-24T01:38:28.894Z,6.07
2023-02-24T01:39:28.916Z,6.10
2023-02-24T01:40:28.866Z,6.12
2023-02-24T01:41:28.832Z,6.15
2023-02-24T01:42:28.850Z,6.17
2023-02-24T01:43:28.826Z,6.19
2023-02-24T01:44:28.804Z,6.20
2023-02-24T01:45:29.057Z,6.22
2023-02-24T01:46:28.822Z,6.24
2023-02-24T01:47:28.794Z,6.25
2023-02-24T01:48:28.759Z,6.27
2023-02-24T01:49:28.741Z,6.28
2023-02-24T01:50:28.747Z,6.29
2023-02-24T01:51:28.711Z,6.31
2023-02-24T01:52:28.790Z,6.32
2023-02-24T01:53:28.686Z,6.33
2023-02-24T01:54:28.711Z,6.35
2023-02-24T01:55:28.705Z,6.37
2023-02-24T01:56:28.655Z,6.38
2023-02-24T01:57:28.690Z,6.39
2023-02-24T01:58:28.683Z,6.40
2023-02-24T01:59:28.634Z,6.40
2023-02-24T02:00:28.625Z,6.40
2023-02-24T02:01:28.633Z,6.40
2023-02-24T02:02:28.736Z,6.39
2023-02-24T02:03:28.604Z,6.36
2023-02-24T02:04:28.553Z,6.31
2023-02-24T02:05:28.539Z,6.24
2023-02-24T02:06:28.564Z,6.16
2023-02-24T02:07:28.536Z,6.07
2023-02-24T02:08:28.500Z,5.97
2023-02-24T02:09:28.485Z,5.84
2023-02-24T02:10:28.464Z,5.71
2023-02-24T02:11:28.476Z,5.56
2023-02-24T02:12:28.476Z,5.42
2023-02-24T02:13:28.475Z,5.30
2023-02-24T02:14:28.414Z,5.20
2023-02-24T02:15:28.409Z,5.11
2023-02-24T02:16:28.475Z,5.03
2023-02-24T02:17:28.386Z,4.98
2023-02-24T02:18:28.438Z,4.96
2023-02-24T02:19:28.416Z,4.96
2023-02-24T02:20:28.357Z,4.97
2023-02-24T02:21:28.337Z,4.98
2023-02-24T02:22:28.335Z,5.00
2023-02-24T02:23:28.320Z,5.04
2023-02-24T02:24:28.329Z,5.07
2023-02-24T02:25:28.275Z,5.10
2023-02-24T02:26:28.274Z,5.12
2023-02-24T02:27:28.253Z,5.14
2023-02-24T02:28:28.272Z,5.16
2023-02-24T02:29:28.225Z,5.18
2023-02-24T02:30:28.217Z,5.21
2023-02-24T02:31:28.320Z,5.24
2023-02-24T02:32:28.347Z,5.27
2023-02-24T02:33:28.188Z,5.29
2023-02-24T02:34:28.160Z,5.29
2023-02-24T02:35:28.163Z,5.29
2023-02-24T02:36:28.131Z,5.28
2023-02-24T02:37:28.117Z,5.26
2023-02-24T02:38:28.138Z,5.21
2023-02-24T02:39:28.111Z,5.14
2023-02-24T02:40:28.086Z,5.07
2023-02-24T02:41:28.066Z,5.00
2023-02-24T02:42:28.069Z,4.94
2023-02-24T02:43:28.069Z,4.89
2023-02-24T02:44:28.037Z,4.86
2023-02-24T02:45:28.038Z,4.86
2023-02-24T02:46:28.001Z,4.87
2023-02-24T02:47:28.012Z,4.88
2023-02-24T02:48:27.999Z,4.91
2023-02-24T02:49:27.973Z,4.93
2023-02-24T02:50:27.954Z,4.96
2023-02-24T02:51:27.951Z,4.99
2023-02-24T02:52:27.925Z,5.03
2023-02-24T02:53:27.923Z,5.06
2023-02-24T02:54:27.895Z,5.10
2023-02-24T02:55:27.877Z,5.14
2023-02-24T02:56:27.863Z,5.18
2023-02-24T02:57:27.866Z,5.20
2023-02-24T02:58:27.837Z,5.21
2023-02-24T02:59:27.845Z,5.21
2023-02-24T03:00:27.808Z,5.19
2023-02-24T03:01:27.836Z,5.16
2023-02-24T03:02:27.857Z,5.11
2023-02-24T03:03:27.767Z,5.05
2023-02-24T03:04:27.805Z,5.00
2023-02-24T03:05:27.753Z,4.94
2023-02-24T03:06:27.723Z,4.90
2023-02-24T03:07:27.715Z,4.88
2023-02-24T03:08:27.702Z,4.88
2023-02-24T03:09:27.705Z,4.90
2023-02-24T03:10:27.825Z,4.93
2023-02-24T03:11:27.684Z,4.96
2023-02-24T03:12:27.669Z,4.99
2023-02-24T03:13:27.651Z,5.03
2023-02-24T03:14:27.683Z,5.07
2023-02-24T03:15:27.611Z,5.11
2023-02-24T03:16:27.698Z,5.13
2023-02-24T03:17:27.586Z,5.14
2023-02-24T03:18:27.590Z,5.12
2023-02-24T03:19:27.600Z,5.09
2023-02-24T03:20:27.543Z,5.05
2023-02-24T03:21:27.560Z,5.00
2023-02-24T03:22:27.528Z,4.96
2023-02-24T03:23:27.506Z,4.92
2023-02-24T03:24:27.506Z,4.90
2023-02-24T03:25:27.497Z,4.88
2023-02-24T03:26:27.478Z,4.88
2023-02-24T03:27:27.491Z,4.89
2023-02-24T03:28:27.481Z,4.91
2023-02-24T03:29:27.422Z,4.93
2023-02-24T03:30:27.440Z,4.95
2023-02-24T03:31:27.434Z,4.98
2023-02-24T03:32:27.575Z,5.00
2023-02-24T03:33:27.389Z,5.03
2023-02-24T03:34:27.398Z,5.06
2023-02-24T03:35:27.371Z,5.09
2023-02-24T03:36:27.375Z,5.11
2023-02-24T03:37:27.342Z,5.13
2023-02-24T03:38:27.331Z,5.14
2023-02-24T03:39:27.299Z,5.15
2023-02-24T03:40:27.315Z,5.13
2023-02-24T03:41:27.303Z,5.11
2023-02-24T03:42:27.260Z,5.07
2023-02-24T03:43:27.244Z,5.02
2023-02-24T03:44:27.231Z,4.94
2023-02-24T03:45:27.227Z,4.87
2023-02-24T03:46:27.278Z,4.80
2023-02-24T03:47:27.199Z,4.73
2023-02-24T03:48:27.182Z,4.68
2023-02-24T03:49:27.168Z,4.62
2023-02-24T03:50:27.191Z,4.57
2023-02-24T03:51:27.144Z,4.53
2023-02-24T03:52:27.183Z,4.50
2023-02-24T03:53:27.121Z,4.48
2023-02-24T03:54:27.112Z,4.45
2023-02-24T03:55:27.131Z,4.43
2023-02-24T03:56:27.074Z,4.40
2023-02-24T03:57:27.088Z,4.39
2023-02-24T03:58:27.070Z,4.39
2023-02-24T03:59:27.066Z,4.41
2023-02-24T04:00:27.048Z,4.42
2023-02-24T04:01:27.032Z,4.42
2023-02-24T04:02:27.077Z,4.41
2023-02-24T04:03:26.993Z,4.40
2023-02-24T04:04:27.017Z,4.38
2023-02-24T04:05:26.967Z,4.37
2023-02-24T04:06:26.961Z,4.35
2023-02-24T04:07:26.944Z,4.32
2023-02-24T04:08:26.929Z,4.29
2023-02-24T04:09:26.918Z,4.26
2023-02-24T04:10:26.907Z,4.22
2023-02-24T04:11:26.913Z,4.19
2023-02-24T04:12:26.952Z,4.16
2023-02-24T04:13:26.875Z,4.14
2023-02-24T04:14:26.849Z,4.14
2023-02-24T04:15:26.898Z,4.15
2023-02-24T04:16:26.846Z,4.17
2023-02-24T04:17:26.828Z,4.21
2023-02-24T04:18:26.819Z,4.26
2023-02-24T04:19:26.796Z,4.31
2023-02-24T04:20:26.785Z,4.37
2023-02-24T04:21:26.800Z,4.44
2023-02-24T04:22:26.793Z,4.50
2023-02-24T04:23:26.821Z,4.56
2023-02-24T04:24:26.783Z,4.61
2023-02-24T04:25:26.757Z,4.66
2023-02-24T04:26:26.717Z,4.70
2023-02-24T04:27:26.698Z,4.73
2023-02-24T04:28:26.689Z,4.74
2023-02-24T04:29:26.686Z,4.74
2023-02-24T04:30:26.673Z,4.71
2023-02-24T04:31:27.019Z,4.68
2023-02-24T04:32:26.815Z,4.65
2023-02-24T04:33:26.625Z,4.62
2023-02-24T04:34:26.601Z,4.59
2023-02-24T04:35:26.608Z,4.57
2023-02-24T04:36:26.576Z,4.55
2023-02-24T04:37:26.593Z,4.53
2023-02-24T04:38:26.565Z,4.51
2023-02-24T04:39:26.555Z,4.50
2023-02-24T04:40:26.531Z,4.48
2023-02-24T04:41:26.536Z,4.47
2023-02-24T04:42:33.041Z,4.47
2023-02-24T04:43:26.518Z,4.47
2023-02-24T04:44:26.529Z,4.48
2023-02-24T04:45:26.482Z,4.48
2023-02-24T04:46:26.482Z,4.48
2023-02-24T04:47:26.454Z,4.48
2023-02-24T04:48:26.432Z,4.47
2023-02-24T04:49:26.421Z,4.46
2023-02-24T04:50:26.404Z,4.45
2023-02-24T04:51:26.406Z,4.44
2023-02-24T04:52:26.415Z,4.43
2023-02-24T04:53:26.366Z,4.41
2023-02-24T04:54:26.356Z,4.39
2023-02-24T04:55:26.338Z,4.36
2023-02-24T04:56:26.334Z,4.33
2023-02-24T04:57:26.350Z,4.30
2023-02-24T04:58:26.297Z,4.26
2023-02-24T04:59:26.294Z,4.23
2023-02-24T05:00:26.301Z,4.21
2023-02-24T05:01:26.328Z,4.21
2023-02-24T05:02:26.258Z,4.20
2023-02-24T05:03:26.283Z,4.20
2023-02-24T05:04:26.253Z,4.19
2023-02-24T05:05:26.214Z,4.17
2023-02-24T05:06:26.202Z,4.15
2023-02-24T05:07:26.197Z,4.14
2023-02-24T05:08:26.183Z,4.14
2023-02-24T05:09:26.192Z,4.13
2023-02-24T05:10:26.154Z,4.13
2023-02-24T05:11:26.146Z,4.15
2023-02-24T05:12:26.130Z,4.17
2023-02-24T05:13:26.135Z,4.19
2023-02-24T05:14:26.251Z,4.22
2023-02-24T05:15:26.095Z,4.25
2023-02-24T05:16:26.100Z,4.27
2023-02-24T05:17:26.079Z,4.27
2023-02-24T05:18:26.098Z,4.27
2023-02-24T05:19:26.044Z,4.27
2023-02-24T05:20:26.037Z,4.27
2023-02-24T05:21:26.026Z,4.26
2023-02-24T05:22:26.022Z,4.26
2023-02-24T05:23:26.014Z,4.26
2023-02-24T05:24:25.979Z,4.25
2023-02-24T05:25:25.970Z,4.26
2023-02-24T05:26:25.955Z,4.26
2023-02-24T05:27:25.950Z,4.27
2023-02-24T05:28:25.940Z,4.29
2023-02-24T05:29:25.939Z,4.30
2023-02-24T05:30:25.950Z,4.31
2023-02-24T05:31:26.562Z,4.31
2023-02-24T05:32:26.002Z,4.30
2023-02-24T05:33:25.913Z,4.29
2023-02-24T05:34:25.862Z,4.28
2023-02-24T05:35:25.947Z,4.27
2023-02-24T05:36:25.838Z,4.27
2023-02-24T05:37:25.823Z,4.27
2023-02-24T05:38:25.834Z,4.28
2023-02-24T05:39:25.799Z,4.29
2023-02-24T05:40:25.779Z,4.30
2023-02-24T05:41:25.796Z,4.30
2023-02-24T05:42:25.761Z,4.32
2023-02-24T05:43:25.763Z,4.33
2023-02-24T05:44:25.768Z,4.34
2023-02-24T05:45:25.716Z,4.36
2023-02-24T05:46:25.751Z,4.39
2023-02-24T05:47:25.782Z,4.42
2023-02-24T05:48:25.696Z,4.45
2023-02-24T05:49:25.690Z,4.49
2023-02-24T05:50:25.692Z,4.52
2023-02-24T05:51:25.670Z,4.56
2023-02-24T05:52:25.633Z,4.59
2023-02-24T05:53:25.622Z,4.61
2023-02-24T05:54:25.612Z,4.62
2023-02-24T05:55:25.596Z,4.63
2023-02-24T05:56:25.587Z,4.63
2023-02-24T05:57:25.574Z,4.63
2023-02-24T05:58:25.556Z,4.61
2023-02-24T05:59:25.547Z,4.58
2023-02-24T06:00:25.563Z,4.55
2023-02-24T06:01:25.513Z,4.52
2023-02-24T06:02:25.596Z,4.50
2023-02-24T06:03:25.676Z,4.48
2023-02-24T06:04:25.491Z,4.47
2023-02-24T06:05:25.485Z,4.45
2023-02-24T06:06:25.466Z,4.44
2023-02-24T06:07:25.558Z,4.43
2023-02-24T06:08:25.458Z,4.42
2023-02-24T06:09:25.437Z,4.42
2023-02-24T06:10:25.418Z,4.42
2023-02-24T06:11:25.513Z,4.43
2023-02-24T06:12:25.386Z,4.43
2023-02-24T06:13:25.406Z,4.43
2023-02-24T06:14:25.372Z,4.42
2023-02-24T06:15:25.355Z,4.42
2023-02-24T06:16:25.362Z,4.43
2023-02-24T06:17:25.374Z,4.44
2023-02-24T06:18:25.298Z,4.46
2023-02-24T06:19:25.328Z,4.46
2023-02-24T06:20:25.292Z,4.45
2023-02-24T06:21:25.267Z,4.43
2023-02-24T06:22:25.301Z,4.41
2023-02-24T06:23:25.297Z,4.38
2023-02-24T06:24:25.255Z,4.36
2023-02-24T06:25:25.265Z,4.33
2023-02-24T06:26:25.274Z,4.29
2023-02-24T06:27:25.658Z,4.25
2023-02-24T06:28:25.337Z,4.22
2023-02-24T06:29:25.199Z,4.19
2023-02-24T06:30:25.193Z,4.17
2023-02-24T06:31:25.485Z,4.16
2023-02-24T06:32:25.290Z,4.16
2023-02-24T06:33:25.119Z,4.15
2023-02-24T06:34:25.166Z,4.15
2023-02-24T06:35:25.093Z,4.16
2023-02-24T06:36:25.094Z,4.17
2023-02-24T06:37:25.074Z,4.18
2023-02-24T06:38:25.064Z,4.19
2023-02-24T06:39:25.043Z,4.21
2023-02-24T06:40:25.036Z,4.23
2023-02-24T06:41:25.021Z,4.25
2023-02-24T06:42:25.024Z,4.26
2023-02-24T06:43:25.115Z,4.26
2023-02-24T06:44:25.017Z,4.26
2023-02-24T06:45:24.976Z,4.27
2023-02-24T06:46:25.034Z,4.27
2023-02-24T06:47:24.951Z,4.28
2023-02-24T06:48:24.952Z,4.30
2023-02-24T06:49:24.911Z,4.32
2023-02-24T06:50:24.925Z,4.34
2023-02-24T06:51:24.896Z,4.35
2023-02-24T06:52:24.876Z,4.36
2023-02-24T06:53:24.869Z,4.37
2023-02-24T06:54:24.858Z,4.38
2023-02-24T06:55:24.840Z,4.38
2023-02-24T06:56:24.833Z,4.37
2023-02-24T06:57:25.729Z,4.36
2023-02-24T06:58:24.822Z,4.34
2023-02-24T06:59:24.779Z,4.32
2023-02-24T07:00:24.808Z,4.30
2023-02-24T07:01:25.027Z,4.28
2023-02-24T07:02:24.750Z,4.27
2023-02-24T07:03:24.740Z,4.27
2023-02-24T07:04:27.786Z,4.29
2023-02-24T07:05:24.724Z,4.30
2023-02-24T07:06:24.699Z,4.31
2023-02-24T07:07:24.688Z,4.32
2023-02-24T07:08:24.687Z,4.32
2023-02-24T07:09:24.669Z,4.32
2023-02-24T07:10:24.664Z,4.33
2023-02-24T07:11:24.628Z,4.35
2023-02-24T07:12:24.635Z,4.37
2023-02-24T07:13:24.645Z,4.40
2023-02-24T07:14:24.598Z,4.42
2023-02-24T07:15:24.613Z,4.44
2023-02-24T07:16:24.625Z,4.45
2023-02-24T07:17:24.585Z,4.46
2023-02-24T07:18:24.569Z,4.48
2023-02-24T07:19:24.533Z,4.50
2023-02-24T07:20:24.569Z,4.52
2023-02-24T07:21:24.531Z,4.54
2023-02-24T07:22:24.495Z,4.55
2023-02-24T07:23:24.484Z,4.56
2023-02-24T07:24:24.465Z,4.56
2023-02-24T07:25:24.462Z,4.56
2023-02-24T07:26:24.473Z,4.56
2023-02-24T07:27:24.462Z,4.56
2023-02-24T07:28:24.443Z,4.56
2023-02-24T07:29:24.437Z,4.56
2023-02-24T07:30:24.415Z,4.57
2023-02-24T07:31:25.119Z,4.57
2023-02-24T07:32:24.508Z,4.58
2023-02-24T07:33:24.365Z,4.60
2023-02-24T07:34:24.391Z,4.63
2023-02-24T07:35:24.358Z,4.66
2023-02-24T07:36:24.347Z,4.70
2023-02-24T07:37:24.327Z,4.74
2023-02-24T07:38:24.335Z,4.77
2023-02-24T07:39:24.304Z,4.79
2023-02-24T07:40:24.281Z,4.82
2023-02-24T07:41:24.324Z,4.85
2023-02-24T07:42:24.297Z,4.88
2023-02-24T07:43:24.249Z,4.92
2023-02-24T07:44:24.265Z,4.94
2023-02-24T07:45:24.318Z,4.97
2023-02-24T07:46:24.302Z,4.99
2023-02-24T07:47:24.187Z,5.01
2023-02-24T07:48:24.269Z,5.03
2023-02-24T07:49:24.167Z,5.06
2023-02-24T07:50:24.539Z,5.08
2023-02-24T07:51:24.128Z,5.11
2023-02-24T07:52:24.153Z,5.14
2023-02-24T07:53:24.147Z,5.16
2023-02-24T07:54:24.102Z,5.18
2023-02-24T07:55:24.148Z,5.20
2023-02-24T07:56:24.118Z,5.22
2023-02-24T07:57:24.082Z,5.23
2023-02-24T07:58:24.049Z,5.24
2023-02-24T07:59:24.043Z,5.26
2023-02-24T08:00:24.866Z,5.28
2023-02-24T08:01:24.000Z,5.29
2023-02-24T08:02:24.103Z,5.32
2023-02-24T08:03:24.024Z,5.35
2023-02-24T08:04:23.967Z,5.38
2023-02-24T08:05:24.032Z,5.42
2023-02-24T08:06:23.938Z,5.46
2023-02-24T08:07:23.973Z,5.50
2023-02-24T08:08:23.930Z,5.54
2023-02-24T08:09:23.901Z,5.58
2023-02-24T08:10:23.913Z,5.62
2023-02-24T08:11:23.876Z,5.65
2023-02-24T08:12:23.865Z,5.68
2023-02-24T08:13:23.867Z,5.70
2023-02-24T08:14:23.873Z,5.73
2023-02-24T08:15:24.002Z,5.75
2023-02-24T08:16:23.852Z,5.78
2023-02-24T08:17:23.891Z,5.80
2023-02-24T08:18:24.770Z,5.81
2023-02-24T08:19:23.803Z,5.83
2023-02-24T08:20:23.786Z,5.85
2023-02-24T08:21:23.760Z,5.86
2023-02-24T08:22:23.744Z,5.87
2023-02-24T08:23:23.745Z,5.88
2023-02-24T08:24:25.235Z,5.90
2023-02-24T08:25:25.063Z,5.91
2023-02-24T08:26:23.883Z,5.93
2023-02-24T08:27:23.674Z,5.96
2023-02-24T08:28:23.688Z,5.98
2023-02-24T08:29:23.639Z,6.01
2023-02-24T08:30:23.764Z,6.03
2023-02-24T08:31:24.202Z,6.04
2023-02-24T08:32:23.771Z,6.05
2023-02-24T08:33:23.610Z,6.06
2023-02-24T08:34:23.588Z,6.07
2023-02-24T08:35:23.603Z,6.08
2023-02-24T08:36:23.616Z,6.09
2023-02-24T08:37:23.595Z,6.10
2023-02-24T08:38:26.529Z,6.11
2023-02-24T08:39:24.418Z,6.12
2023-02-24T08:40:23.615Z,6.11
2023-02-24T08:41:23.872Z,6.11
2023-02-24T08:42:23.473Z,6.10
2023-02-24T08:43:23.450Z,6.09
2023-02-24T08:44:23.459Z,6.10
2023-02-24T08:45:23.440Z,6.10
2023-02-24T08:46:23.469Z,6.12
2023-02-24T08:47:23.421Z,6.14
2023-02-24T08:48:23.394Z,6.16
2023-02-24T08:49:23.388Z,6.18
2023-02-24T08:50:23.390Z,6.19
2023-02-24T08:51:23.862Z,6.22
2023-02-24T08:52:32.533Z,6.23
2023-02-24T08:53:23.408Z,6.23
2023-02-24T08:54:23.359Z,6.24
2023-02-24T08:55:23.333Z,6.24
2023-02-24T08:56:23.550Z,6.25
2023-02-24T08:57:23.278Z,6.27
2023-02-24T08:58:23.281Z,6.30
2023-02-24T08:59:23.255Z,6.33
2023-02-24T09:00:23.254Z,6.36
2023-02-24T09:01:23.893Z,6.39
2023-02-24T09:02:23.270Z,6.42
2023-02-24T09:03:23.194Z,6.45
2023-02-24T09:04:23.211Z,6.48
2023-02-24T09:05:23.179Z,6.51
2023-02-24T09:06:23.163Z,6.54
2023-02-24T09:07:23.193Z,6.57
2023-02-24T09:08:23.188Z,6.60
2023-02-24T09:09:23.141Z,6.62
2023-02-24T09:10:23.124Z,6.65
2023-02-24T09:11:23.584Z,6.67
2023-02-24T09:12:23.095Z,6.69
2023-02-24T09:13:23.068Z,6.71
2023-02-24T09:14:28.247Z,6.73
2023-02-24T09:15:23.063Z,6.75
2023-02-24T09:16:23.143Z,6.78
2023-02-24T09:17:23.014Z,6.80
2023-02-24T09:18:23.014Z,6.83
2023-02-24T09:19:22.988Z,6.85
2023-02-24T09:20:23.021Z,6.88
2023-02-24T09:21:23.169Z,6.91
2023-02-24T09:22:22.973Z,6.93
2023-02-24T09:23:22.941Z,6.95
2023-02-24T09:24:22.943Z,6.97
2023-02-24T09:25:22.982Z,6.99
2023-02-24T09:26:23.457Z,7.02
2023-02-24T09:27:22.892Z,7.05
2023-02-24T09:28:22.943Z,7.07
2023-02-24T09:29:22.856Z,7.10
2023-02-24T09:30:22.868Z,7.13
2023-02-24T09:31:23.404Z,7.16
2023-02-24T09:32:23.114Z,7.19
2023-02-24T09:33:22.850Z,7.22
2023-02-24T09:34:22.895Z,7.26
2023-02-24T09:35:22.847Z,7.30
2023-02-24T09:36:23.254Z,7.34
2023-02-24T09:37:25.059Z,7.38
2023-02-24T09:38:22.743Z,7.41
2023-02-24T09:39:22.731Z,7.44
2023-02-24T09:40:22.772Z,7.47
2023-02-24T09:41:27.791Z,7.51
2023-02-24T09:42:22.732Z,7.54
2023-02-24T09:43:22.683Z,7.58
2023-02-24T09:44:22.705Z,7.61
2023-02-24T09:45:23.395Z,7.64
2023-02-24T09:46:22.851Z,7.67
2023-02-24T09:47:22.634Z,7.70
2023-02-24T09:48:22.634Z,7.73
2023-02-24T09:49:22.631Z,7.77
2023-02-24T09:50:47.332Z,7.79
2023-02-24T09:51:23.137Z,7.82
2023-02-24T09:52:22.895Z,7.85
2023-02-24T09:53:23.406Z,7.88
2023-02-24T09:54:22.590Z,7.90
2023-02-24T09:55:22.541Z,7.92
2023-02-24T09:56:22.516Z,7.95
2023-02-24T09:57:22.539Z,7.97
2023-02-24T09:58:27.041Z,7.98
2023-02-24T09:59:22.490Z,8.00
2023-02-24T10:00:22.726Z,8.01
2023-02-24T10:01:23.033Z,8.03
2023-02-24T10:02:22.488Z,8.05
2023-02-24T10:03:22.418Z,8.07
2023-02-24T10:04:22.415Z,8.09
2023-02-24T10:05:22.461Z,8.11
2023-02-24T10:06:22.850Z,8.14
2023-02-24T10:07:22.426Z,8.15
2023-02-24T10:08:22.366Z,8.17
2023-02-24T10:09:22.346Z,8.19
2023-02-24T10:10:22.336Z,8.21
2023-02-24T10:11:23.076Z,8.23
2023-02-24T10:12:22.307Z,8.25
2023-02-24T10:13:22.309Z,8.26
2023-02-24T10:14:24.192Z,8.28
2023-02-24T10:15:22.267Z,8.30
2023-02-24T10:16:22.302Z,8.32
2023-02-24T10:17:22.771Z,8.35
2023-02-24T10:18:22.251Z,8.37
2023-02-24T10:19:22.300Z,8.39
2023-02-24T10:20:22.228Z,8.41
2023-02-24T10:21:22.583Z,8.43
2023-02-24T10:22:22.200Z,8.46
2023-02-24T10:23:22.196Z,8.49
2023-02-24T10:24:22.196Z,8.51
2023-02-24T10:25:22.144Z,8.53
2023-02-24T10:26:22.132Z,8.54
2023-02-24T10:27:22.130Z,8.55
2023-02-24T10:28:22.133Z,8.56
2023-02-24T10:29:22.130Z,8.59
2023-02-24T10:30:22.104Z,8.61
2023-02-24T10:31:22.781Z,8.64
2023-02-24T10:32:22.308Z,8.67
2023-02-24T10:33:22.048Z,8.70
2023-02-24T10:34:24.015Z,8.74
2023-02-24T10:35:22.034Z,8.78
2023-02-24T10:36:22.021Z,8.82
2023-02-24T10:37:28.267Z,8.85
2023-02-24T10:38:21.993Z,8.89
2023-02-24T10:39:21.991Z,8.92
2023-02-24T10:40:21.992Z,8.95
2023-02-24T10:41:22.300Z,8.97
2023-02-24T10:42:22.031Z,9.00
2023-02-24T10:43:28.448Z,9.03
2023-02-24T10:44:21.916Z,9.06
2023-02-24T10:45:23.572Z,9.09
2023-02-24T10:46:26.335Z,9.12
2023-02-24T10:47:21.903Z,9.15
2023-02-24T10:48:29.533Z,9.17
2023-02-24T10:49:21.874Z,9.19
2023-02-24T10:50:21.832Z,9.21
2023-02-24T10:51:22.381Z,9.23
2023-02-24T10:52:21.820Z,9.24
2023-02-24T10:53:21.807Z,9.26
2023-02-24T10:54:21.833Z,9.27
2023-02-24T10:55:21.790Z,9.27
2023-02-24T10:56:22.110Z,9.28
2023-02-24T10:57:21.760Z,9.30
2023-02-24T10:58:21.759Z,9.31
2023-02-24T10:59:21.789Z,9.31
2023-02-24T11:00:21.717Z,9.32
2023-02-24T11:01:22.127Z,9.33
2023-02-24T11:02:21.710Z,9.34
2023-02-24T11:03:32.435Z,9.35
2023-02-24T11:04:21.668Z,9.37
2023-02-24T11:05:21.658Z,9.38
2023-02-24T11:06:21.635Z,9.39
2023-02-24T11:07:21.627Z,9.41
2023-02-24T11:08:21.702Z,9.42
2023-02-24T11:09:21.599Z,9.44
2023-02-24T11:10:21.600Z,9.45
2023-02-24T11:11:21.897Z,9.47
2023-02-24T11:12:21.567Z,9.49
2023-02-24T11:13:21.576Z,9.50
2023-02-24T11:14:21.564Z,9.52
2023-02-24T11:15:21.533Z,9.53
2023-02-24T11:16:21.625Z,9.54
2023-02-24T11:17:21.543Z,9.55
2023-02-24T11:18:21.494Z,9.56
2023-02-24T11:19:21.533Z,9.57
2023-02-24T11:20:21.507Z,9.59
2023-02-24T11:21:21.751Z,9.60
2023-02-24T11:22:21.461Z,9.62
2023-02-24T11:23:21.429Z,9.63
2023-02-24T11:24:21.440Z,9.65
2023-02-24T11:25:21.410Z,9.66
2023-02-24T11:26:21.396Z,9.67
2023-02-24T11:27:21.393Z,9.68
2023-02-24T11:28:21.372Z,9.69
2023-02-24T11:29:21.393Z,9.70
2023-02-24T11:30:21.339Z,9.70
2023-02-24T11:31:21.863Z,9.71
2023-02-24T11:32:21.482Z,9.73
2023-02-24T11:33:21.320Z,9.74
2023-02-24T11:34:21.336Z,9.75
2023-02-24T11:35:21.307Z,9.76
2023-02-24T11:36:21.267Z,9.77
2023-02-24T11:37:21.325Z,9.77
2023-02-24T11:38:21.242Z,9.78
2023-02-24T11:39:21.810Z,9.78
2023-02-24T11:40:21.216Z,9.78
2023-02-24T11:41:21.585Z,9.77
2023-02-24T11:42:21.201Z,9.77
2023-02-24T11:43:21.205Z,9.77
2023-02-24T11:44:21.206Z,9.76
2023-02-24T11:45:21.204Z,9.75
2023-02-24T11:46:21.196Z,9.75
2023-02-24T11:47:21.145Z,9.75
2023-02-24T11:48:21.136Z,9.74
2023-02-24T11:49:21.116Z,9.74
2023-02-24T11:50:21.115Z,9.73
2023-02-24T11:51:21.464Z,9.72
2023-02-24T11:52:21.078Z,9.72
2023-02-24T11:53:21.099Z,9.71
2023-02-24T11:54:21.064Z,9.70
2023-02-24T11:55:21.087Z,9.69
2023-02-24T11:56:21.655Z,9.68
2023-02-24T11:57:21.018Z,9.67
2023-02-24T11:58:21.015Z,9.66
2023-02-24T11:59:21.257Z,9.66
2023-02-24T12:00:20.992Z,9.66
2023-02-24T12:01:22.020Z,9.66
2023-02-24T12:02:21.180Z,9.66
2023-02-24T12:03:20.942Z,9.66
2023-02-24T12:04:21.130Z,9.66
2023-02-24T12:05:21.274Z,9.66
2023-02-24T12:06:21.326Z,9.66
2023-02-24T12:07:20.906Z,9.66
2023-02-24T12:08:21.429Z,9.66
2023-02-24T12:09:20.873Z,9.66
2023-02-24T12:10:21.335Z,9.66
2023-02-24T12:11:21.789Z,9.66
2023-02-24T12:12:21.280Z,9.67
2023-02-24T12:13:21.204Z,9.67
2023-02-24T12:14:21.394Z,9.68
2023-02-24T12:15:21.173Z,9.68
2023-02-24T12:16:21.255Z,9.69
2023-02-24T12:17:21.287Z,9.69
2023-02-24T12:18:21.029Z,9.70
2023-02-24T12:19:21.121Z,9.71
2023-02-24T12:20:21.213Z,9.71
2023-02-24T12:21:21.112Z,9.71
2023-02-24T12:22:20.767Z,9.70
2023-02-24T12:23:20.717Z,9.70
2023-02-24T12:24:20.704Z,9.69
2023-02-24T12:25:20.688Z,9.69
2023-02-24T12:26:20.682Z,9.68
2023-02-24T12:27:20.674Z,9.68
2023-02-24T12:28:20.637Z,9.67
2023-02-24T12:29:20.698Z,9.67
2023-02-24T12:30:20.647Z,9.66
2023-02-24T12:31:21.219Z,9.65
2023-02-24T12:32:20.907Z,9.64
2023-02-24T12:33:20.608Z,9.64
2023-02-24T12:34:20.569Z,9.63
2023-02-24T12:35:20.566Z,9.63
2023-02-24T12:36:20.664Z,9.62
2023-02-24T12:37:20.612Z,9.62
2023-02-24T12:38:20.557Z,9.63
2023-02-24T12:39:20.505Z,9.63
2023-02-24T12:40:20.493Z,9.63
2023-02-24T12:41:20.859Z,9.64
2023-02-24T12:42:20.475Z,9.65
2023-02-24T12:43:20.476Z,9.65
2023-02-24T12:44:20.440Z,9.66
2023-02-24T12:45:20.431Z,9.66
2023-02-24T12:46:20.473Z,9.66
2023-02-24T12:47:20.426Z,9.66
2023-02-24T12:48:20.399Z,9.66
2023-02-24T12:49:20.406Z,9.67
2023-02-24T12:50:20.402Z,9.67
2023-02-24T12:51:20.878Z,9.68
2023-02-24T12:52:20.390Z,9.68
2023-02-24T12:53:20.360Z,9.68
2023-02-24T12:54:20.337Z,9.69
2023-02-24T12:55:20.309Z,9.69
2023-02-24T12:56:20.303Z,9.70
2023-02-24T12:57:20.306Z,9.70
2023-02-24T12:58:20.289Z,9.71
2023-02-24T12:59:20.277Z,9.72
2023-02-24T13:00:20.262Z,9.73
2023-02-24T13:01:20.681Z,9.73
2023-02-24T13:02:20.308Z,9.73
2023-02-24T13:03:20.217Z,9.73
2023-02-24T13:04:20.213Z,9.73
2023-02-24T13:05:20.217Z,9.73
2023-02-24T13:06:20.182Z,9.73
2023-02-24T13:07:20.187Z,9.73
2023-02-24T13:08:20.179Z,9.72
2023-02-24T13:09:20.155Z,9.71
2023-02-24T13:10:20.134Z,9.71
2023-02-24T13:11:20.525Z,9.70
2023-02-24T13:12:20.126Z,9.70
2023-02-24T13:13:20.115Z,9.70
2023-02-24T13:14:20.072Z,9.70
2023-02-24T13:15:20.074Z,9.70
2023-02-24T13:16:20.120Z,9.70
2023-02-24T13:17:20.188Z,9.71
2023-02-24T13:18:20.034Z,9.71